»·PEaware :: QXE9903 KMFR-KTVL

QXE9903 :: KMFR-KTVL

FLIGHT INFORMATION

Flight Status: Arrived
Operator:
Horizon Air
More flights by this operator :: More flights under this callsign
Pilot: Henderson P. (1210)
Aircraft: DEHAVILLAND DASH 8 400
(DH8D)
More flights by this aircraft type
Origin: KMFR Rogue Valley Intl-Medford
United States
Destination: KTVL Lake Tahoe
United States
More flights between these airports :: More routes between these airports
Route: +JKSN1 OED SWR
File this flight plan on PilotEdge
Remarks:
Altitude:
(Current/Filed)
25,000ft
Speed:
(Current/Filed)
317kts
Departed: 22-Jun-19 02:02 PM
Arrived: 22-Jun-19 02:59 PM
Distance/Time
Traveled:
246nm/0:57
Distance/Time
To Go:
Arrived

Flight Plot

Page will automatically refresh every two minutes.

Flight plan parsing failed; only flown route is shown


Map Options




Map Legend


Flown Route
Filed Route
Departure Airport
Arrival Airport
Navaid (VOR, NDB)
Fix

Horizontal Profiles

Position Reports

Time Latitude Longitude Heading Altitude Ground
Speed
22-Jun-19 13:36 42.369460 -122.873499 249 1342ft 0kts
22-Jun-19 13:37 42.369460 -122.873499 249 1342ft 0kts
22-Jun-19 13:38 42.369460 -122.873499 249 1342ft 0kts
22-Jun-19 13:39 42.369460 -122.873499 249 1342ft 0kts
22-Jun-19 13:40 42.369460 -122.873499 249 1342ft 0kts
22-Jun-19 13:41 42.369460 -122.873499 249 1342ft 0kts
22-Jun-19 13:42 42.369460 -122.873499 249 1342ft 0kts
22-Jun-19 13:43 42.369460 -122.873499 249 1342ft 0kts
22-Jun-19 13:44 42.369460 -122.873499 249 1342ft 0kts
22-Jun-19 13:45 42.369460 -122.873499 249 1342ft 0kts
22-Jun-19 13:46 42.369460 -122.873499 249 1342ft 0kts
22-Jun-19 13:47 42.369460 -122.873499 249 1342ft 0kts
22-Jun-19 13:48 42.369460 -122.873499 249 1342ft 0kts
22-Jun-19 13:49 42.369460 -122.873499 249 1342ft 0kts
22-Jun-19 13:50 42.369460 -122.873499 249 1342ft 0kts
22-Jun-19 13:52 42.369460 -122.873499 249 1342ft 0kts
22-Jun-19 13:53 42.369460 -122.873499 249 1342ft 0kts
22-Jun-19 13:54 42.369460 -122.873499 249 1342ft 0kts
22-Jun-19 13:55 42.369460 -122.873499 249 1342ft 0kts
22-Jun-19 13:56 42.369441 -122.873568 250 1342ft 3kts
22-Jun-19 13:57 42.370294 -122.873455 61 1342ft 3kts
22-Jun-19 13:58 42.372216 -122.873291 337 1342ft 17kts
22-Jun-19 13:59 42.378160 -122.876444 338 1342ft 23kts
22-Jun-19 14:00 42.384330 -122.879688 338 1342ft 22kts
22-Jun-19 14:01 42.385670 -122.878818 155 1342ft 11kts
22-Jun-19 14:02 42.357101 -122.864170 160 2232ft 154kts
22-Jun-19 14:03 42.341334 -122.897637 319 4623ft 149kts
22-Jun-19 14:04 42.380376 -122.921215 350 6960ft 152kts
22-Jun-19 14:05 42.423778 -122.922832 6 9146ft 156kts
22-Jun-19 14:06 42.467531 -122.914663 8 11187ft 156kts
22-Jun-19 14:07 42.508813 -122.923416 299 12781ft 184kts
22-Jun-19 14:07 42.485102 -122.972403 186 13655ft 248kts
22-Jun-19 14:09 42.437265 -122.895976 115 14811ft 261kts
22-Jun-19 14:10 42.382015 -122.830526 142 15805ft 274kts
22-Jun-19 14:10 42.328579 -122.784819 144 16628ft 277kts
22-Jun-19 14:12 42.252691 -122.721701 144 17776ft 278kts
22-Jun-19 14:13 42.186767 -122.666293 143 18773ft 278kts
22-Jun-19 14:13 42.132416 -122.620398 144 19597ft 277kts
22-Jun-19 14:14 42.067502 -122.566038 144 20581ft 275kts
22-Jun-19 14:15 42.002312 -122.511476 144 21576ft 273kts
22-Jun-19 14:16 41.937532 -122.457484 144 22570ft 270kts
22-Jun-19 14:17 41.872898 -122.403619 144 23569ft 267kts
22-Jun-19 14:18 41.808780 -122.350340 144 24567ft 263kts
22-Jun-19 14:19 41.744759 -122.297089 144 25150ft 278kts
22-Jun-19 14:20 41.675045 -122.239503 145 25174ft 305kts
22-Jun-19 14:21 41.600955 -122.178564 145 25179ft 317kts
22-Jun-19 14:22 41.524538 -122.115779 145 25182ft 324kts
22-Jun-19 14:23 41.447524 -122.052664 145 25181ft 326kts
22-Jun-19 14:24 41.369522 -121.988904 145 25179ft 327kts
22-Jun-19 14:25 41.291007 -121.925200 145 25173ft 329kts
22-Jun-19 14:26 41.212321 -121.860902 145 25157ft 330kts
22-Jun-19 14:27 41.132919 -121.796675 145 25153ft 330kts
22-Jun-19 14:28 41.054139 -121.733027 145 25145ft 330kts
22-Jun-19 14:29 40.975435 -121.669537 145 25135ft 330kts
22-Jun-19 14:30 40.896491 -121.606183 145 25129ft 330kts
22-Jun-19 14:31 40.817376 -121.542774 145 25126ft 330kts
22-Jun-19 14:32 40.738613 -121.479874 145 25126ft 329kts
22-Jun-19 14:33 40.659494 -121.416760 145 25130ft 329kts
22-Jun-19 14:34 40.580656 -121.354158 145 25139ft 329kts
22-Jun-19 14:35 40.501758 -121.291682 145 25148ft 330kts
22-Jun-19 14:36 40.422554 -121.229070 145 25121ft 330kts
22-Jun-19 14:37 40.343784 -121.166970 145 25130ft 330kts
22-Jun-19 14:38 40.264992 -121.105092 145 25139ft 330kts
22-Jun-19 14:39 40.186122 -121.043296 145 25147ft 330kts
22-Jun-19 14:40 40.106183 -120.980879 145 25152ft 330kts
22-Jun-19 14:41 40.027126 -120.919206 145 25151ft 330kts
22-Jun-19 14:42 39.948052 -120.857733 145 25148ft 331kts
22-Jun-19 14:43 39.868119 -120.795786 145 25147ft 331kts
22-Jun-19 14:44 39.788695 -120.734414 145 25153ft 330kts
22-Jun-19 14:45 39.709987 -120.673746 145 25177ft 330kts
22-Jun-19 14:46 39.626067 -120.608892 146 23483ft 375kts
22-Jun-19 14:47 39.533961 -120.538349 146 21402ft 390kts
22-Jun-19 14:48 39.440106 -120.466766 147 19289ft 389kts
22-Jun-19 14:49 39.348779 -120.397228 147 17232ft 380kts
22-Jun-19 14:50 39.264628 -120.333414 147 15344ft 369kts
22-Jun-19 14:51 39.180135 -120.269391 146 13263ft 357kts
22-Jun-19 14:52 39.105742 -120.198676 139 12987ft 318kts
22-Jun-19 14:53 39.067302 -120.107270 108 11400ft 264kts
22-Jun-19 14:54 39.031430 -120.036809 147 9478ft 226kts
22-Jun-19 14:55 38.977789 -120.011755 161 8066ft 190kts
22-Jun-19 14:56 38.931050 -119.993424 163 6778ft 161kts
22-Jun-19 14:57 38.891011 -119.996206 191 6266ft 104kts
22-Jun-19 14:58 38.883859 -119.999319 13 6266ft 13kts
22-Jun-19 14:59 38.888689 -119.997904 13 6266ft 21kts
22-Jun-19 15:00 38.892512 -119.998095 328 6266ft 4kts
22-Jun-19 15:01 38.892613 -119.998066 16 6266ft 0kts
22-Jun-19 15:02 38.892613 -119.998066 16 6266ft 0kts
22-Jun-19 15:03 38.892613 -119.998066 16 6266ft 0kts
22-Jun-19 15:04 38.892613 -119.998066 16 6266ft 0kts
22-Jun-19 15:05 38.892613 -119.998066 16 6266ft 0kts
22-Jun-19 15:06 38.892613 -119.998066 16 6266ft 0kts
22-Jun-19 15:07 38.892613 -119.998066 16 6266ft 0kts
22-Jun-19 15:08 38.892613 -119.998066 16 6266ft 0kts
22-Jun-19 15:09 38.892613 -119.998066 16 6266ft 0kts
22-Jun-19 15:10 38.892613 -119.998066 16 6266ft 0kts
22-Jun-19 15:11 38.892613 -119.998066 16 6266ft 0kts
22-Jun-19 15:12 38.892613 -119.998066 16 6266ft 0kts
22-Jun-19 15:13 38.892613 -119.998066 16 6266ft 0kts

Navigation Log

Ident Type
Flight plan parsing failed, navigation log unavailable